Time;durP1;ratioP1;P1;durP2;ratioP2;P2;SDS_P1;SDS_P2;PMS_P1;PMS_P2;Temp;Humidity;BMP_temperature;BMP_pressure;BME280_temperature;BME280_humidity;BME280_pressure;Samples;Min_cycle;Max_cycle;Signal;HPM_P1;HPM_P2
2022/06/19 00:01:59;;;;;;;10.63;5.60;;;24.10;99.90;;;;;;5036170;28;20472;-79
2022/06/19 00:04:25;;;;;;;11.07;6.22;;;24.10;99.90;;;;;;5042478;28;20017;-79
2022/06/19 00:06:51;;;;;;;7.45;5.43;;;24.20;99.90;;;;;;5035670;28;20497;-80
2022/06/19 00:09:17;;;;;;;8.00;5.40;;;24.10;99.90;;;;;;5048971;28;20029;-80
2022/06/19 00:11:43;;;;;;;12.77;5.55;;;24.10;99.90;;;;;;5036414;28;20029;-80
2022/06/19 00:14:10;;;;;;;7.70;5.47;;;24.10;99.90;;;;;;5055609;28;20071;-82
2022/06/19 00:16:36;;;;;;;8.52;5.30;;;24.10;99.90;;;;;;5048095;28;20104;-79
2022/06/19 00:19:03;;;;;;;9.98;4.90;;;24.10;99.90;;;;;;5035442;28;20025;-80
2022/06/19 00:21:29;;;;;;;8.68;5.22;;;24.10;99.90;;;;;;5034028;28;20383;-81
2022/06/19 00:23:55;;;;;;;10.60;5.63;;;24.10;99.90;;;;;;5046827;28;20076;-79
2022/06/19 00:26:20;;;;;;;15.00;6.10;;;24.00;99.90;;;;;;5048428;28;20048;-82
2022/06/19 00:28:47;;;;;;;7.90;5.30;;;24.00;99.90;;;;;;5051296;28;20079;-81
2022/06/19 00:31:16;;;;;;;12.27;5.32;;;24.00;99.90;;;;;;5052421;28;20044;-82
2022/06/19 00:33:42;;;;;;;10.52;6.57;;;24.00;99.90;;;;;;5035043;28;20137;-82
2022/06/19 00:36:08;;;;;;;10.70;5.13;;;24.00;99.90;;;;;;5052487;28;20383;-81
2022/06/19 00:38:34;;;;;;;8.75;4.88;;;24.00;99.90;;;;;;5054756;28;20024;-83
2022/06/19 00:41:00;;;;;;;10.07;5.05;;;23.90;99.90;;;;;;5036862;28;20033;-80
2022/06/19 00:43:27;;;;;;;10.93;5.60;;;23.90;99.90;;;;;;5034681;28;20475;-83
2022/06/19 00:45:58;;;;;;;6.45;5.00;;;23.90;99.90;;;;;;5048616;28;20043;-81
2022/06/19 00:48:33;;;;;;;8.50;5.00;;;23.80;99.90;;;;;;5044575;28;20112;-80
2022/06/19 00:51:04;;;;;;;8.50;5.63;;;23.70;99.90;;;;;;5045224;28;20028;-80
2022/06/19 00:53:36;;;;;;;13.02;5.25;;;23.70;99.90;;;;;;5035046;28;20025;-80
2022/06/19 00:56:02;;;;;;;9.38;4.85;;;23.60;99.90;;;;;;5034436;28;20518;-81
2022/06/19 00:58:34;;;;;;;10.65;5.15;;;23.60;99.90;;;;;;5034659;28;20033;-80
2022/06/19 01:01:08;;;;;;;6.50;5.22;;;23.60;99.90;;;;;;5034899;28;20040;-80
2022/06/19 01:03:54;;;;;;;7.85;4.78;;;23.60;99.90;;;;;;5033391;28;20030;-79
2022/06/19 01:06:21;;;;;;;8.48;5.45;;;23.60;99.90;;;;;;5033876;28;20064;-80
2022/06/19 01:08:47;;;;;;;13.30;5.47;;;23.50;99.90;;;;;;5033230;28;20064;-80
2022/06/19 01:11:15;;;;;;;11.00;4.97;;;23.50;99.90;;;;;;5033165;28;20059;-82
2022/06/19 01:13:41;;;;;;;6.43;4.68;;;23.50;99.90;;;;;;5034884;28;20108;-81
2022/06/19 01:16:08;;;;;;;6.97;5.32;;;23.40;99.90;;;;;;5038205;28;20036;-82
2022/06/19 01:18:35;;;;;;;11.38;5.35;;;23.40;99.90;;;;;;5046561;28;20044;-80
2022/06/19 01:21:14;;;;;;;7.43;5.13;;;23.40;99.90;;;;;;5050354;28;20044;-81
2022/06/19 01:24:04;;;;;;;7.13;4.50;;;23.40;99.90;;;;;;5049609;28;20036;-82
2022/06/19 01:26:35;;;;;;;7.97;5.13;;;23.30;99.90;;;;;;5052270;28;20115;-81
2022/06/19 01:29:02;;;;;;;12.50;5.15;;;23.30;99.90;;;;;;5034315;28;20036;-79
2022/06/19 01:31:35;;;;;;;14.57;5.50;;;23.20;99.90;;;;;;5039903;28;20065;-79
2022/06/19 01:34:26;;;;;;;7.47;5.22;;;23.30;99.90;;;;;;5046619;28;20022;-82
2022/06/19 01:37:07;;;;;;;8.85;5.40;;;23.20;99.90;;;;;;5043906;28;20028;-80
2022/06/19 01:39:43;;;;;;;8.55;5.47;;;23.30;99.90;;;;;;5053812;28;20102;-82
2022/06/19 01:42:11;;;;;;;9.05;4.63;;;23.30;99.90;;;;;;5036524;28;20392;-81
2022/06/19 01:44:38;;;;;;;6.70;4.75;;;23.30;99.90;;;;;;5033996;28;20014;-80
2022/06/19 01:47:04;;;;;;;7.82;4.43;;;23.30;99.90;;;;;;5044500;28;20356;-84
2022/06/19 01:49:35;;;;;;;7.05;4.80;;;23.30;99.90;;;;;;5049728;28;20033;-80
2022/06/19 01:52:03;;;;;;;6.80;4.27;;;23.30;99.90;;;;;;5041797;28;20140;-80
2022/06/19 01:54:36;;;;;;;6.32;4.30;;;23.30;99.90;;;;;;5032741;28;20029;-81
2022/06/19 01:57:06;;;;;;;6.05;4.18;;;23.30;99.90;;;;;;5049449;28;20127;-79
2022/06/19 01:59:33;;;;;;;11.00;4.63;;;23.30;99.90;;;;;;5053580;28;20421;-79
2022/06/19 02:02:02;;;;;;;12.18;4.45;;;23.20;99.90;;;;;;5036963;28;20021;-79
2022/06/19 02:04:29;;;;;;;7.00;4.45;;;23.20;99.90;;;;;;5033590;28;20021;-80
2022/06/19 02:06:58;;;;;;;5.75;4.57;;;23.30;99.90;;;;;;5035650;28;20048;-81
2022/06/19 02:09:24;;;;;;;5.70;4.22;;;23.30;99.90;;;;;;5037399;28;20100;-80
2022/06/19 02:11:50;;;;;;;6.95;4.30;;;23.30;99.90;;;;;;5033417;28;20025;-80
2022/06/19 02:14:17;;;;;;;7.07;4.13;;;23.30;99.90;;;;;;5038558;28;20087;-79
2022/06/19 02:16:46;;;;;;;5.45;4.30;;;23.30;99.90;;;;;;5041873;28;20025;-81
2022/06/19 02:19:12;;;;;;;4.78;4.25;;;23.30;99.90;;;;;;5053145;28;20388;-79
2022/06/19 02:21:48;;;;;;;5.07;3.83;;;23.20;99.90;;;;;;5036499;28;20472;-79
2022/06/19 02:24:19;;;;;;;9.60;4.07;;;23.20;99.90;;;;;;5034565;28;20033;-79
2022/06/19 02:26:48;;;;;;;6.38;3.85;;;23.10;99.90;;;;;;5050997;28;20059;-80
2022/06/19 02:29:16;;;;;;;5.88;3.58;;;23.20;99.90;;;;;;5050354;28;20045;-80
2022/06/19 02:31:44;;;;;;;6.22;3.60;;;23.20;99.90;;;;;;5044451;28;20025;-80
2022/06/19 02:34:31;;;;;;;8.27;3.83;;;23.20;99.90;;;;;;5044011;28;20470;-79
2022/06/19 02:37:02;;;;;;;6.93;4.10;;;23.20;99.90;;;;;;5045812;28;20021;-82
2022/06/19 02:39:50;;;;;;;4.03;3.67;;;23.20;99.90;;;;;;5032502;28;20021;-80
2022/06/19 02:42:22;;;;;;;7.32;4.22;;;23.10;99.90;;;;;;5032761;28;20057;-80
2022/06/19 02:45:01;;;;;;;6.50;3.75;;;23.10;99.90;;;;;;5032830;28;20533;-80
2022/06/19 02:47:29;;;;;;;17.50;4.22;;;23.10;99.90;;;;;;5034501;28;20060;-80
2022/06/19 02:49:54;;;;;;;4.93;4.10;;;23.10;99.90;;;;;;5041771;28;20021;-80
2022/06/19 02:52:20;;;;;;;16.80;4.07;;;23.10;99.90;;;;;;5049877;28;20123;-80
2022/06/19 02:54:46;;;;;;;5.80;3.42;;;23.00;99.90;;;;;;5045479;28;20032;-80
2022/06/19 02:57:13;;;;;;;4.25;3.58;;;23.00;99.90;;;;;;5032462;28;20038;-81
2022/06/19 02:59:40;;;;;;;7.18;3.80;;;23.10;99.90;;;;;;5047070;28;20122;-80
2022/06/19 03:02:07;;;;;;;6.68;3.53;;;23.10;99.90;;;;;;5052551;28;20391;-80
2022/06/19 03:04:41;;;;;;;7.07;3.70;;;23.10;99.90;;;;;;5051260;28;20025;-80
2022/06/19 03:07:06;;;;;;;7.20;4.13;;;23.10;99.90;;;;;;5046449;28;20034;-82
2022/06/19 03:09:32;;;;;;;9.13;3.67;;;23.10;99.90;;;;;;5041874;28;20052;-79
2022/06/19 03:11:58;;;;;;;13.32;3.70;;;23.10;99.90;;;;;;5034043;28;20057;-80
2022/06/19 03:14:24;;;;;;;10.07;3.72;;;23.10;99.90;;;;;;5038351;28;20032;-80
2022/06/19 03:16:50;;;;;;;4.78;3.60;;;23.10;99.90;;;;;;5037467;28;20030;-79
2022/06/19 03:19:16;;;;;;;14.38;4.07;;;23.20;99.90;;;;;;5032383;28;20471;-80
2022/06/19 03:21:42;;;;;;;9.77;2.95;;;23.20;99.90;;;;;;5032707;28;20033;-81
2022/06/19 03:24:08;;;;;;;12.48;3.60;;;23.20;99.90;;;;;;5036307;28;20028;-80
2022/06/19 03:26:33;;;;;;;3.67;3.20;;;23.20;99.90;;;;;;5052399;28;20021;-80
2022/06/19 03:28:59;;;;;;;4.97;3.25;;;23.20;99.90;;;;;;5047510;28;20103;-79
2022/06/19 03:31:26;;;;;;;9.82;3.50;;;23.10;99.90;;;;;;5033564;28;20154;-83
2022/06/19 03:33:52;;;;;;;13.02;3.53;;;23.20;99.90;;;;;;5032347;28;20071;-79
2022/06/19 03:36:19;;;;;;;7.28;3.38;;;23.10;99.90;;;;;;5032207;28;20026;-79
2022/06/19 03:38:45;;;;;;;8.90;3.10;;;23.20;99.90;;;;;;5032149;28;20033;-79
2022/06/19 03:41:11;;;;;;;4.10;3.17;;;23.20;99.90;;;;;;5032409;28;20032;-80
2022/06/19 03:43:37;;;;;;;4.55;2.85;;;23.20;99.90;;;;;;5031967;28;20026;-79
2022/06/19 03:46:14;;;;;;;7.68;3.22;;;23.30;99.90;;;;;;5032291;28;20391;-80
2022/06/19 03:48:42;;;;;;;5.35;3.22;;;23.30;99.90;;;;;;5032749;28;20073;-80
2022/06/19 03:51:08;;;;;;;17.92;3.50;;;23.40;99.90;;;;;;5036301;28;20108;-80
2022/06/19 03:53:34;;;;;;;5.03;3.50;;;23.40;99.90;;;;;;5047237;28;20112;-81
2022/06/19 03:56:00;;;;;;;5.22;3.45;;;23.40;99.90;;;;;;5036237;28;20076;-81
2022/06/19 03:58:45;;;;;;;4.75;3.00;;;23.50;99.90;;;;;;5032576;28;20084;-80
2022/06/19 04:01:31;;;;;;;8.63;3.33;;;23.70;99.90;;;;;;5044761;28;20494;-79
2022/06/19 04:03:58;;;;;;;8.48;3.17;;;23.80;99.90;;;;;;5051521;28;20112;-82
2022/06/19 04:06:26;;;;;;;5.63;2.97;;;23.80;99.90;;;;;;5036679;28;20060;-80
2022/06/19 04:08:52;;;;;;;6.28;2.47;;;23.80;99.90;;;;;;5032216;28;20113;-80
2022/06/19 04:11:20;;;;;;;9.02;2.65;;;23.90;99.90;;;;;;5048302;28;20507;-79
2022/06/19 04:13:46;;;;;;;6.95;2.85;;;23.90;99.90;;;;;;5044627;28;20361;-79
2022/06/19 04:16:21;;;;;;;4.72;2.97;;;24.10;99.90;;;;;;5042354;28;20050;-81
2022/06/19 04:18:52;;;;;;;5.28;2.58;;;24.20;99.90;;;;;;5045494;28;20053;-80
2022/06/19 04:21:21;;;;;;;13.20;2.78;;;24.40;99.90;;;;;;5035396;28;20025;-80
2022/06/19 04:23:49;;;;;;;3.92;2.72;;;24.50;99.50;;;;;;5052890;28;20082;-80
2022/06/19 04:26:16;;;;;;;7.32;2.38;;;24.60;99.50;;;;;;5055384;28;20021;-80
2022/06/19 04:28:43;;;;;;;4.05;1.92;;;24.80;99.20;;;;;;5055391;28;20037;-79
2022/06/19 04:31:09;;;;;;;2.65;2.13;;;24.80;98.70;;;;;;5044398;28;20051;-81
2022/06/19 04:33:39;;;;;;;3.55;2.40;;;24.90;98.40;;;;;;5047952;28;20033;-80
2022/06/19 04:36:10;;;;;;;7.90;2.53;;;25.00;98.40;;;;;;5038380;28;20531;-81
2022/06/19 04:38:41;;;;;;;3.30;2.38;;;25.20;98.50;;;;;;5047444;28;20025;-79
2022/06/19 04:41:17;;;;;;;5.53;2.20;;;25.30;98.00;;;;;;5035218;28;20475;-80
2022/06/19 04:43:42;;;;;;;5.30;2.13;;;25.40;97.90;;;;;;5052919;28;20531;-80
2022/06/19 04:46:09;;;;;;;3.95;1.77;;;25.70;97.80;;;;;;5055168;28;20021;-80
2022/06/19 04:48:35;;;;;;;6.30;2.10;;;25.90;97.10;;;;;;5036645;28;20128;-83
2022/06/19 04:51:00;;;;;;;3.33;1.90;;;26.30;97.00;;;;;;5043894;28;20060;-81
2022/06/19 04:53:27;;;;;;;9.65;1.98;;;26.70;96.70;;;;;;5054841;28;20060;-80
2022/06/19 04:55:53;;;;;;;5.70;1.90;;;27.10;95.00;;;;;;5047805;28;20048;-81
2022/06/19 04:58:22;;;;;;;3.10;2.08;;;27.30;95.00;;;;;;5037474;28;20518;-81
2022/06/19 05:00:49;;;;;;;6.22;1.98;;;27.60;94.40;;;;;;5054422;28;20028;-81
2022/06/19 05:03:16;;;;;;;2.05;1.52;;;27.80;93.70;;;;;;5044587;28;20026;-81
2022/06/19 05:05:41;;;;;;;7.05;1.52;;;28.20;93.30;;;;;;5034653;28;20026;-80
2022/06/19 05:08:07;;;;;;;3.25;1.52;;;28.40;92.80;;;;;;5034280;28;20455;-80
2022/06/19 05:10:32;;;;;;;6.30;2.42;;;28.60;92.40;;;;;;5034226;28;20030;-82
2022/06/19 05:12:58;;;;;;;2.38;1.55;;;28.60;92.10;;;;;;5034622;28;20059;-80
2022/06/19 05:15:24;;;;;;;9.50;1.92;;;28.70;92.20;;;;;;5049078;28;20511;-80
2022/06/19 05:17:50;;;;;;;2.83;1.48;;;29.20;92.00;;;;;;5048535;28;20040;-81
2022/06/19 05:20:16;;;;;;;3.15;1.88;;;29.90;91.20;;;;;;5048682;28;20036;-80
2022/06/19 05:22:42;;;;;;;7.38;1.70;;;30.50;90.30;;;;;;5035260;28;20099;-81
2022/06/19 05:25:08;;;;;;;7.30;1.85;;;30.90;89.30;;;;;;5034645;28;20025;-82
2022/06/19 05:27:40;;;;;;;2.05;1.23;;;31.30;87.10;;;;;;5034153;28;20065;-80
2022/06/19 05:30:07;;;;;;;6.40;1.60;;;31.60;85.80;;;;;;5033404;28;20018;-80
2022/06/19 05:32:33;;;;;;;4.18;1.40;;;32.10;84.40;;;;;;5036845;28;20036;-80
2022/06/19 05:34:58;;;;;;;4.55;1.38;;;32.50;82.90;;;;;;5048164;28;20068;-82
2022/06/19 05:37:25;;;;;;;3.58;1.40;;;32.90;81.90;;;;;;5043838;28;20348;-81
2022/06/19 05:39:51;;;;;;;5.55;1.35;;;33.40;80.90;;;;;;5045213;28;20389;-81
2022/06/19 05:42:17;;;;;;;2.35;1.25;;;33.60;80.10;;;;;;5036086;28;20025;-81
2022/06/19 05:44:43;;;;;;;3.38;1.30;;;33.90;76.70;;;;;;5053648;28;20025;-83
2022/06/19 05:47:09;;;;;;;2.38;1.20;;;34.00;74.70;;;;;;5052653;28;20483;-80
2022/06/19 05:49:34;;;;;;;4.70;1.17;;;33.90;74.60;;;;;;5033689;28;20502;-80
2022/06/19 05:52:12;;;;;;;1.88;1.20;;;34.00;73.70;;;;;;5033954;28;20051;-80
2022/06/19 05:54:38;;;;;;;7.18;1.38;;;34.00;73.90;;;;;;5042898;28;20056;-79
2022/06/19 05:57:04;;;;;;;2.25;1.02;;;34.60;73.40;;;;;;5036058;28;20095;-80
2022/06/19 05:59:30;;;;;;;3.30;1.10;;;35.20;71.40;;;;;;5043633;28;20040;-80
2022/06/19 06:01:55;;;;;;;2.55;1.23;;;35.60;70.60;;;;;;5036411;28;20044;-83
2022/06/19 06:04:22;;;;;;;6.70;1.30;;;35.80;69.70;;;;;;5053286;28;20025;-81
2022/06/19 06:06:48;;;;;;;1.95;0.93;;;35.80;68.60;;;;;;5051944;28;20399;-80
2022/06/19 06:09:15;;;;;;;2.47;1.35;;;35.90;67.90;;;;;;5053263;28;20029;-80
2022/06/19 06:11:41;;;;;;;7.07;1.17;;;36.10;66.80;;;;;;5037026;28;20485;-81
2022/06/19 06:14:07;;;;;;;5.05;1.23;;;36.30;66.60;;;;;;5033594;28;20422;-80
2022/06/19 06:16:32;;;;;;;1.35;1.08;;;36.40;66.00;;;;;;5036667;28;20025;-83
2022/06/19 06:18:58;;;;;;;2.17;1.00;;;36.50;65.60;;;;;;5033441;28;20068;-82
2022/06/19 06:21:25;;;;;;;1.20;1.00;;;36.80;65.00;;;;;;5032149;28;20036;-82
2022/06/19 06:23:52;;;;;;;3.55;1.45;;;37.20;64.50;;;;;;5033357;28;20021;-81
2022/06/19 06:26:27;;;;;;;2.45;0.98;;;37.70;63.50;;;;;;5033169;28;20025;-80
2022/06/19 06:28:55;;;;;;;6.47;1.45;;;38.10;62.90;;;;;;5033217;28;20029;-83
2022/06/19 06:31:21;;;;;;;6.00;1.27;;;38.40;61.10;;;;;;5033142;28;20079;-83
2022/06/19 06:33:47;;;;;;;3.03;1.00;;;38.50;59.80;;;;;;5032866;28;20025;-79
2022/06/19 06:36:13;;;;;;;3.05;1.30;;;38.40;60.70;;;;;;5031814;28;20540;-79
2022/06/19 06:38:39;;;;;;;1.42;0.90;;;38.50;59.60;;;;;;5033017;28;20064;-84
2022/06/19 06:41:07;;;;;;;4.85;1.02;;;38.10;59.60;;;;;;5032381;28;20025;-82
2022/06/19 06:43:35;;;;;;;5.10;1.27;;;38.00;60.10;;;;;;5031815;28;20071;-80
2022/06/19 06:46:06;;;;;;;4.78;1.02;;;37.80;59.60;;;;;;5032806;28;20535;-80
2022/06/19 06:48:32;;;;;;;3.80;1.20;;;37.20;59.80;;;;;;5032519;28;20041;-80
2022/06/19 06:50:58;;;;;;;2.05;1.00;;;36.70;60.70;;;;;;5032585;28;20385;-80
2022/06/19 06:53:23;;;;;;;6.07;1.20;;;36.20;61.50;;;;;;5032740;28;20036;-82
2022/06/19 06:55:49;;;;;;;19.05;2.08;;;36.00;62.30;;;;;;5032118;28;20049;-81
2022/06/19 06:58:14;;;;;;;12.05;2.22;;;35.80;63.30;;;;;;5032759;28;20060;-79
2022/06/19 07:00:42;;;;;;;13.18;2.45;;;35.50;65.20;;;;;;5032243;28;20100;-79
2022/06/19 07:03:09;;;;;;;11.00;2.15;;;35.20;65.40;;;;;;5032596;28;20523;-83
2022/06/19 07:05:35;;;;;;;8.82;2.25;;;35.10;67.10;;;;;;5032552;28;20084;-83
2022/06/19 07:08:01;;;;;;;11.85;2.53;;;35.20;66.40;;;;;;5032452;28;20069;-83
2022/06/19 07:10:27;;;;;;;6.97;1.83;;;34.90;67.00;;;;;;5032635;28;20026;-81
2022/06/19 07:12:53;;;;;;;8.07;2.00;;;34.60;68.60;;;;;;5032753;28;20510;-78
2022/06/19 07:15:18;;;;;;;6.97;2.25;;;34.40;72.40;;;;;;5032528;28;20026;-79
2022/06/19 07:17:44;;;;;;;7.47;2.30;;;33.90;72.50;;;;;;5032451;28;20104;-79
2022/06/19 07:20:11;;;;;;;14.27;2.55;;;33.90;73.20;;;;;;5032704;28;20033;-81
2022/06/19 07:22:36;;;;;;;8.35;2.78;;;33.90;72.00;;;;;;5031983;28;20017;-83
2022/06/19 07:25:04;;;;;;;3.10;2.20;;;33.80;71.90;;;;;;5032173;28;20040;-78
2022/06/19 07:27:30;;;;;;;9.95;1.95;;;33.90;71.10;;;;;;5032013;28;20033;-82
2022/06/19 07:29:56;;;;;;;14.32;2.03;;;34.00;72.00;;;;;;5032004;28;20078;-78
2022/06/19 07:32:21;;;;;;;7.18;2.33;;;34.00;72.60;;;;;;5032116;28;20030;-82
2022/06/19 07:34:47;;;;;;;9.05;3.15;;;33.60;74.00;;;;;;5030988;28;20025;-79
2022/06/19 07:37:15;;;;;;;11.52;3.50;;;33.60;78.00;;;;;;5032267;28;20021;-79
2022/06/19 07:39:41;;;;;;;9.05;3.28;;;33.70;79.20;;;;;;5032261;28;20483;-79
2022/06/19 07:42:10;;;;;;;8.52;2.97;;;33.70;78.10;;;;;;5032367;28;20025;-78
2022/06/19 07:44:37;;;;;;;12.05;2.72;;;33.80;78.10;;;;;;5032214;28;20032;-81
2022/06/19 07:52:33;;;;;;;9.82;2.38;;;33.90;75.70;;;;;;5033192;28;20040;-78
2022/06/19 07:54:58;;;;;;;6.18;2.45;;;33.90;75.00;;;;;;5036013;28;20021;-79
2022/06/19 07:57:24;;;;;;;7.60;2.05;;;34.00;75.80;;;;;;5035965;28;20029;-76
2022/06/19 07:59:50;;;;;;;8.43;3.00;;;34.10;76.50;;;;;;5035902;28;20056;-77
2022/06/19 08:02:16;;;;;;;9.05;2.50;;;34.10;78.00;;;;;;5035804;28;20361;-84
2022/06/19 08:04:41;;;;;;;8.50;2.67;;;34.30;78.30;;;;;;5035214;28;20029;-84
2022/06/19 08:07:11;;;;;;;12.93;2.78;;;34.30;77.70;;;;;;5034337;28;20357;-82
2022/06/19 08:09:37;;;;;;;6.95;3.00;;;34.20;77.10;;;;;;5035178;28;20128;-78
2022/06/19 08:12:03;;;;;;;5.93;2.90;;;34.20;78.60;;;;;;5034449;28;20113;-82
2022/06/19 08:14:29;;;;;;;5.35;2.70;;;34.10;77.00;;;;;;5035900;28;20032;-82
2022/06/19 08:16:54;;;;;;;5.10;2.38;;;34.00;78.00;;;;;;5033097;28;20021;-83
2022/06/19 08:19:20;;;;;;;6.88;3.28;;;34.00;79.70;;;;;;5043300;28;20109;-78
2022/06/19 08:21:46;;;;;;;11.20;3.05;;;33.50;80.00;;;;;;5055128;28;20029;-78
2022/06/19 08:24:11;;;;;;;10.50;3.17;;;33.30;80.90;;;;;;5041222;28;20021;-80
2022/06/19 08:26:37;;;;;;;17.45;3.40;;;33.30;81.00;;;;;;5040853;28;20070;-81
2022/06/19 08:29:03;;;;;;;8.20;3.38;;;33.20;80.20;;;;;;5050923;28;20084;-81
2022/06/19 08:31:30;;;;;;;10.65;3.15;;;33.30;80.80;;;;;;5046283;28;20030;-81
2022/06/19 08:33:55;;;;;;;6.80;3.47;;;33.40;83.60;;;;;;5038250;28;20387;-81
2022/06/19 08:36:22;;;;;;;3.90;3.30;;;33.20;84.40;;;;;;5042550;28;20035;-82
2022/06/19 08:38:52;;;;;;;9.30;3.47;;;33.10;85.90;;;;;;5048773;28;20025;-81
2022/06/19 08:41:26;;;;;;;14.85;3.00;;;33.00;87.60;;;;;;5046268;28;20109;-80
2022/06/19 08:44:01;;;;;;;7.15;3.42;;;32.90;82.50;;;;;;5042769;28;20025;-79
2022/06/19 08:46:47;;;;;;;4.78;2.95;;;32.60;82.70;;;;;;5045830;28;20032;-79
2022/06/19 08:49:19;;;;;;;9.15;3.42;;;32.60;84.10;;;;;;5041381;28;20062;-80
2022/06/19 08:52:09;;;;;;;6.82;3.35;;;32.30;83.30;;;;;;5034826;28;20018;-81
2022/06/19 08:54:43;;;;;;;6.65;3.00;;;32.20;84.10;;;;;;5034901;28;20033;-79
2022/06/19 08:57:36;;;;;;;9.43;3.28;;;32.10;82.80;;;;;;5033776;28;20496;-78
2022/06/19 09:00:52;;;;;;;7.10;3.40;;;32.10;82.90;;;;;;5052970;28;20104;-79
2022/06/19 09:06:55;;;;;;;7.97;2.83;;;32.20;86.70;;;;;;5034289;28;20052;-79
2022/06/19 09:09:25;;;;;;;6.80;3.22;;;32.10;84.30;;;;;;5033883;28;20069;-79
2022/06/19 09:12:07;;;;;;;13.93;3.00;;;32.30;83.30;;;;;;5033338;28;20432;-81
2022/06/19 09:14:34;;;;;;;;;;;32.30;83.80;;;;;;5035244;28;20064;-78
2022/06/19 09:17:20;;;;;;;7.18;3.22;;;32.50;81.70;;;;;;5035111;28;19912;-79
2022/06/19 09:20:07;;;;;;;11.40;3.60;;;32.50;85.10;;;;;;5034595;28;20017;-82
2022/06/19 09:23:11;;;;;;;9.98;3.95;;;32.40;86.30;;;;;;5034929;28;20036;-79
2022/06/19 09:25:45;;;;;;;8.00;3.08;;;32.50;88.00;;;;;;5033140;28;20044;-81
2022/06/19 09:28:22;;;;;;;4.63;2.95;;;32.40;88.60;;;;;;5034271;28;20120;-81
2022/06/19 09:30:54;;;;;;;5.88;2.97;;;32.30;87.50;;;;;;5034325;28;20044;-79
2022/06/19 09:33:50;;;;;;;13.48;3.17;;;32.20;89.40;;;;;;5032516;28;20029;-81
2022/06/19 09:36:34;;;;;;;6.93;3.90;;;31.90;90.10;;;;;;5034391;28;20383;-80
2022/06/19 09:39:25;;;;;;;6.03;3.55;;;31.80;90.70;;;;;;5034491;28;20028;-79
2022/06/19 09:41:56;;;;;;;14.93;3.30;;;31.60;90.40;;;;;;5030390;28;20041;-80
2022/06/19 09:44:43;;;;;;;7.57;3.78;;;31.60;90.20;;;;;;5034355;28;20029;-81
2022/06/19 09:47:11;;;;;;;6.50;3.15;;;31.50;90.80;;;;;;5034433;28;20029;-82
2022/06/19 09:49:54;;;;;;;7.45;3.25;;;31.50;90.50;;;;;;5034308;28;20156;-83
2022/06/19 09:52:32;;;;;;;10.13;3.45;;;31.60;87.50;;;;;;5034294;28;20075;-79
2022/06/19 09:55:11;;;;;;;12.27;4.05;;;31.60;90.20;;;;;;5034081;28;20021;-80
2022/06/19 09:57:47;;;;;;;7.72;3.45;;;31.60;89.70;;;;;;5034232;28;20029;-80
2022/06/19 10:00:26;;;;;;;5.43;3.47;;;31.40;89.50;;;;;;5034194;28;20057;-82
2022/06/19 10:02:54;;;;;;;13.48;3.60;;;31.20;90.20;;;;;;5033749;28;20022;-77
2022/06/19 10:05:32;;;;;;;5.20;3.60;;;31.20;88.60;;;;;;5033972;28;20068;-80
2022/06/19 10:08:08;;;;;;;6.00;3.63;;;31.30;88.80;;;;;;5033986;28;20506;-79
2022/06/19 10:10:36;;;;;;;8.30;4.25;;;31.40;88.70;;;;;;5034141;28;20029;-79
2022/06/19 10:13:10;;;;;;;8.30;3.58;;;31.50;90.20;;;;;;5032386;28;20479;-79
2022/06/19 10:15:37;;;;;;;12.02;4.63;;;31.40;91.30;;;;;;5033348;28;20018;-78
2022/06/19 10:18:14;;;;;;;18.42;5.03;;;31.00;91.90;;;;;;5033944;28;20388;-79
2022/06/19 10:21:09;;;;;;;8.40;4.60;;;30.80;92.10;;;;;;5033672;28;20351;-80
2022/06/19 10:23:49;;;;;;;8.13;4.47;;;30.70;93.20;;;;;;5033685;28;20056;-80
2022/06/19 10:26:48;;;;;;;8.60;3.88;;;30.50;92.80;;;;;;5033627;28;20071;-81
2022/06/19 10:29:41;;;;;;;8.20;4.75;;;30.40;92.40;;;;;;5033480;28;20164;-81
2022/06/19 10:32:33;;;;;;;5.25;3.70;;;30.30;91.90;;;;;;5033088;28;20500;-77
2022/06/19 10:35:12;;;;;;;5.85;3.30;;;30.20;91.30;;;;;;5033241;28;20025;-79
2022/06/19 10:38:00;;;;;;;15.43;4.53;;;30.10;92.80;;;;;;5033161;28;20025;-81
2022/06/19 10:40:39;;;;;;;9.38;4.00;;;30.10;93.10;;;;;;5033098;28;20025;-79
2022/06/19 10:43:30;;;;;;;8.23;3.78;;;30.20;93.10;;;;;;5033224;28;20022;-80
2022/06/19 10:45:58;;;;;;;6.35;3.55;;;30.30;91.90;;;;;;5033265;28;20044;-78
2022/06/19 10:48:56;;;;;;;8.90;3.63;;;30.30;92.10;;;;;;5033058;28;20426;-76
2022/06/19 10:51:43;;;;;;;9.95;4.05;;;30.40;92.80;;;;;;5033243;28;20100;-77
2022/06/19 10:54:33;;;;;;;6.93;3.92;;;30.40;92.70;;;;;;5033198;28;20064;-81
2022/06/19 10:57:11;;;;;;;9.07;3.55;;;30.40;92.50;;;;;;5033008;28;20046;-78
2022/06/19 10:59:37;;;;;;;8.77;3.65;;;30.20;92.40;;;;;;5033103;28;20022;-77
2022/06/19 11:05:13;;;;;;;11.18;3.78;;;30.20;92.60;;;;;;5033021;28;20165;-78
2022/06/19 11:07:40;;;;;;;6.40;3.50;;;30.10;92.40;;;;;;5032584;28;20025;-82
2022/06/19 11:10:21;;;;;;;7.40;3.78;;;30.10;93.00;;;;;;5032861;28;20025;-78
2022/06/19 11:12:56;;;;;;;3.45;3.10;;;30.20;92.50;;;;;;5032676;28;20024;-78
2022/06/19 11:15:40;;;;;;;14.57;3.22;;;30.30;92.00;;;;;;5032839;28;20156;-77
2022/06/19 11:18:08;;;;;;;9.23;3.85;;;30.30;91.50;;;;;;5032429;28;20494;-77
2022/06/19 11:20:33;;;;;;;10.65;2.88;;;30.20;90.60;;;;;;5032662;28;20022;-79
2022/06/19 11:23:37;;;;;;;5.43;3.08;;;30.30;90.80;;;;;;5032830;28;20493;-79
2022/06/19 11:26:11;;;;;;;5.07;2.53;;;30.40;90.70;;;;;;5032747;28;20025;-79
2022/06/19 11:28:52;;;;;;;4.50;2.55;;;30.60;89.30;;;;;;5034640;28;20061;-80
2022/06/19 11:31:21;;;;;;;;;;;30.60;89.40;;;;;;5037205;28;20029;-79
2022/06/19 11:33:51;;;;;;;6.18;2.65;;;30.50;89.10;;;;;;5036860;28;20064;-78
2022/06/19 11:36:34;;;;;;;5.18;2.50;;;30.60;88.80;;;;;;5036771;28;20460;-80
2022/06/19 11:39:02;;;;;;;4.47;2.45;;;30.70;87.20;;;;;;5036877;28;20068;-78
2022/06/19 11:41:32;;;;;;;3.58;2.65;;;30.80;87.70;;;;;;5036711;28;20449;-79
2022/06/19 11:44:06;;;;;;;8.00;2.58;;;30.90;86.50;;;;;;5036604;28;20025;-78
2022/06/19 11:46:44;;;;;;;7.78;2.83;;;30.70;86.70;;;;;;5036619;28;20044;-84
2022/06/19 11:49:37;;;;;;;3.28;2.40;;;30.70;87.20;;;;;;5035180;28;20034;-79
2022/06/19 11:52:25;;;;;;;4.53;2.45;;;30.70;87.10;;;;;;5036318;28;20423;-85
2022/06/19 11:54:51;;;;;;;4.57;2.38;;;30.50;88.10;;;;;;5036304;28;20018;-78
2022/06/19 11:57:27;;;;;;;5.82;2.30;;;30.40;89.40;;;;;;5036547;28;20075;-82
2022/06/19 11:59:59;;;;;;;8.85;2.72;;;30.40;89.60;;;;;;5036486;28;20476;-83
2022/06/19 12:02:45;;;;;;;4.40;2.53;;;30.30;90.10;;;;;;5036537;28;20041;-85
2022/06/19 12:05:26;;;;;;;6.47;2.38;;;30.20;91.00;;;;;;5036037;28;20168;-82
2022/06/19 12:07:51;;;;;;;11.05;2.88;;;30.10;91.20;;;;;;5034880;28;20032;-80
2022/06/19 12:10:24;;;;;;;8.02;2.70;;;30.00;90.90;;;;;;5036063;28;20033;-80
2022/06/19 12:12:59;;;;;;;5.28;2.25;;;30.00;90.60;;;;;;5036011;28;20637;-80
2022/06/19 12:15:35;;;;;;;8.25;2.53;;;29.80;90.50;;;;;;5035833;28;20100;-82
2022/06/19 12:18:11;;;;;;;8.55;2.60;;;29.70;90.60;;;;;;5034834;28;20025;-80
2022/06/19 12:20:38;;;;;;;3.65;2.63;;;29.80;90.70;;;;;;5034529;28;20033;-83
2022/06/19 12:23:12;;;;;;;6.13;2.15;;;29.80;90.00;;;;;;5034648;28;20407;-79
2022/06/19 12:25:47;;;;;;;7.57;2.55;;;29.80;89.50;;;;;;5035776;28;20028;-82
2022/06/19 12:28:35;;;;;;;7.43;2.85;;;29.70;90.60;;;;;;5034582;28;20426;-81
2022/06/19 12:31:12;;;;;;;9.68;3.22;;;29.60;91.60;;;;;;5035779;28;20033;-81
2022/06/19 12:33:44;;;;;;;7.57;2.83;;;29.50;91.60;;;;;;5035963;28;20021;-78
2022/06/19 12:36:19;;;;;;;16.50;3.15;;;29.50;91.30;;;;;;5035770;28;20026;-80
2022/06/19 12:38:46;;;;;;;13.00;2.58;;;29.20;91.30;;;;;;5035667;28;20022;-83
2022/06/19 12:41:35;;;;;;;8.02;2.47;;;29.20;91.50;;;;;;5035737;28;20479;-86
2022/06/19 12:44:26;;;;;;;8.57;2.78;;;29.20;90.90;;;;;;5035654;28;20136;-82
2022/06/19 12:47:22;;;;;;;9.80;3.00;;;29.20;91.40;;;;;;5035548;28;20113;-85
2022/06/19 12:50:00;;;;;;;4.32;2.83;;;29.20;91.60;;;;;;5035662;28;20083;-81
2022/06/19 12:52:35;;;;;;;4.97;2.58;;;29.10;92.00;;;;;;5034042;28;20021;-82
2022/06/19 12:55:38;;;;;;;8.07;2.83;;;29.20;92.00;;;;;;5035462;28;20105;-84
2022/06/19 12:58:38;;;;;;;3.20;2.50;;;29.10;92.70;;;;;;5035310;28;20052;-86
2022/06/19 13:01:09;;;;;;;8.07;2.80;;;29.00;92.80;;;;;;5035505;28;20041;-85
2022/06/19 13:04:02;;;;;;;4.40;2.47;;;29.20;93.50;;;;;;5035366;28;20068;-85
2022/06/19 13:06:47;;;;;;;6.55;2.80;;;29.30;92.80;;;;;;5035163;28;20036;-81
2022/06/19 13:09:30;;;;;;;7.25;3.10;;;29.40;92.20;;;;;;5034952;28;20037;-85
2022/06/19 13:12:18;;;;;;;5.13;2.75;;;29.20;92.10;;;;;;5035246;28;20021;-83
2022/06/19 13:15:21;;;;;;;9.63;2.97;;;29.10;92.20;;;;;;5034708;28;20121;-87
2022/06/19 13:18:11;;;;;;;4.90;2.60;;;29.00;92.90;;;;;;5033901;28;20045;-86
2022/06/19 13:20:45;;;;;;;9.43;3.00;;;28.90;93.20;;;;;;5034747;28;20017;-81
2022/06/19 13:23:10;;;;;;;9.13;2.95;;;29.00;93.10;;;;;;5035280;28;20049;-83